createdAt,value
2023-04-27T00:02:23.349Z,78.40
2023-04-27T00:04:51.117Z,78.50
2023-04-27T00:07:18.396Z,78.30
2023-04-27T00:09:45.560Z,77.90
2023-04-27T00:12:12.550Z,77.80
2023-04-27T00:14:39.542Z,78.40
2023-04-27T00:17:06.567Z,78.50
2023-04-27T00:19:33.803Z,78.60
2023-04-27T00:22:00.876Z,78.50
2023-04-27T00:24:27.918Z,78.50
2023-04-27T00:26:54.998Z,78.60
2023-04-27T00:29:22.543Z,78.50
2023-04-27T00:31:49.625Z,78.50
2023-04-27T00:34:16.664Z,78.40
2023-04-27T00:36:43.679Z,78.40
2023-04-27T00:39:10.728Z,78.20
2023-04-27T00:41:41.938Z,77.90
2023-04-27T00:44:08.945Z,77.90
2023-04-27T00:46:36.473Z,78.00
2023-04-27T00:49:03.656Z,78.10
2023-04-27T00:51:31.417Z,78.30
2023-04-27T00:53:59.113Z,78.60
2023-04-27T00:56:26.150Z,78.90
2023-04-27T00:58:53.304Z,79.20
2023-04-27T01:01:20.848Z,79.30
2023-04-27T01:03:48.497Z,79.50
2023-04-27T01:06:15.702Z,79.40
2023-04-27T01:08:44.267Z,79.30
2023-04-27T01:11:11.294Z,79.50
2023-04-27T01:13:39.522Z,79.40
2023-04-27T01:16:06.710Z,79.70
2023-04-27T01:18:33.781Z,80.40
2023-04-27T01:21:01.352Z,80.90
2023-04-27T01:23:28.419Z,80.90
2023-04-27T01:25:55.485Z,80.90
2023-04-27T01:28:22.476Z,80.80
2023-04-27T01:30:49.723Z,80.60
2023-04-27T01:33:16.853Z,80.50
2023-04-27T01:35:43.954Z,80.20
2023-04-27T01:38:11.103Z,79.80
2023-04-27T01:40:44.026Z,79.90
2023-04-27T01:43:11.175Z,80.10
2023-04-27T01:45:38.200Z,80.30
2023-04-27T01:48:05.395Z,80.30
2023-04-27T01:50:32.456Z,80.30
2023-04-27T01:52:59.479Z,80.80
2023-04-27T01:55:28.864Z,81.10
2023-04-27T01:57:56.029Z,81.50
2023-04-27T02:00:23.112Z,82.00
2023-04-27T02:02:53.805Z,82.10
2023-04-27T02:05:21.077Z,82.30
2023-04-27T02:07:49.523Z,82.60
2023-04-27T02:10:16.710Z,82.70
2023-04-27T02:12:44.670Z,82.60
2023-04-27T02:15:11.803Z,82.70
2023-04-27T02:17:39.737Z,82.70
2023-04-27T02:20:07.791Z,82.60
2023-04-27T02:22:35.657Z,82.50
2023-04-27T02:25:02.847Z,82.20
2023-04-27T02:27:29.846Z,82.30
2023-04-27T02:29:58.409Z,82.40
2023-04-27T02:32:25.892Z,82.30
2023-04-27T02:34:53.026Z,82.40
2023-04-27T02:37:20.054Z,82.50
2023-04-27T02:40:09.563Z,82.70
2023-04-27T02:42:39.018Z,82.70
2023-04-27T02:45:09.455Z,83.00
2023-04-27T02:47:37.005Z,83.40
2023-04-27T02:50:04.354Z,83.30
2023-04-27T02:52:34.548Z,83.50
2023-04-27T02:55:01.731Z,83.80
2023-04-27T02:57:29.090Z,84.00
2023-04-27T02:59:56.262Z,84.20
2023-04-27T03:02:23.388Z,84.40
2023-04-27T03:04:55.098Z,84.20
2023-04-27T03:07:22.765Z,84.50
2023-04-27T03:09:49.788Z,84.30
2023-04-27T03:12:16.882Z,83.90
2023-04-27T03:14:43.921Z,83.70
2023-04-27T03:17:10.951Z,83.50
2023-04-27T03:19:38.429Z,83.20
2023-04-27T03:22:05.750Z,83.20
2023-04-27T03:24:33.378Z,83.20
2023-04-27T03:27:00.399Z,83.10
2023-04-27T03:29:27.366Z,83.00
2023-04-27T03:31:54.442Z,83.10
2023-04-27T03:34:21.899Z,83.30
2023-04-27T03:36:49.118Z,83.70
2023-04-27T03:39:16.394Z,83.80
2023-04-27T03:41:43.484Z,83.80
2023-04-27T03:44:10.852Z,84.00
2023-04-27T03:46:38.724Z,84.10
2023-04-27T03:49:06.412Z,84.00
2023-04-27T03:51:33.695Z,83.90
2023-04-27T03:54:00.935Z,84.00
2023-04-27T03:56:28.512Z,84.00
2023-04-27T04:02:44.190Z,84.10
2023-04-27T04:05:12.708Z,84.20
2023-04-27T04:07:41.624Z,84.20
2023-04-27T04:10:09.157Z,84.20
2023-04-27T04:12:53.878Z,84.40
2023-04-27T04:15:21.134Z,84.20
2023-04-27T04:17:50.456Z,83.90
2023-04-27T04:20:19.007Z,84.00
2023-04-27T04:22:46.049Z,84.30
2023-04-27T04:25:13.238Z,84.10
2023-04-27T04:27:42.194Z,84.20
2023-04-27T04:30:09.570Z,84.20
2023-04-27T04:32:38.168Z,84.30
2023-04-27T04:35:06.721Z,84.50
2023-04-27T04:37:35.609Z,84.90
2023-04-27T04:40:10.813Z,85.10
2023-04-27T04:42:39.046Z,85.20
2023-04-27T04:45:49.247Z,85.10
2023-04-27T04:48:16.769Z,85.00
2023-04-27T04:50:45.935Z,85.00
2023-04-27T04:53:13.530Z,85.20
2023-04-27T04:55:41.225Z,85.30
2023-04-27T04:58:09.326Z,85.10
2023-04-27T05:00:50.691Z,84.90
2023-04-27T05:03:17.828Z,84.90
2023-04-27T05:05:45.006Z,84.80
2023-04-27T05:08:11.930Z,84.40
2023-04-27T05:10:39.048Z,84.50
2023-04-27T05:13:07.184Z,84.30
2023-04-27T05:15:34.343Z,84.00
2023-04-27T05:18:01.389Z,83.70
2023-04-27T05:20:28.472Z,83.50
2023-04-27T05:22:55.775Z,83.10
2023-04-27T05:25:22.819Z,83.30
2023-04-27T05:27:49.757Z,83.10
2023-04-27T05:30:16.762Z,83.10
2023-04-27T05:32:43.811Z,82.90
2023-04-27T05:35:11.535Z,82.90
2023-04-27T05:37:38.564Z,83.00
2023-04-27T05:40:07.653Z,82.90
2023-04-27T05:42:34.622Z,82.30
2023-04-27T05:45:01.973Z,82.40
2023-04-27T05:47:29.069Z,82.10
2023-04-27T05:49:56.361Z,81.70
2023-04-27T05:52:29.550Z,81.00
2023-04-27T05:54:57.006Z,81.10
2023-04-27T05:57:24.667Z,81.40
2023-04-27T05:59:52.037Z,81.40
2023-04-27T06:02:19.749Z,81.50
2023-04-27T06:04:46.936Z,80.60
2023-04-27T06:07:16.428Z,79.80
2023-04-27T06:09:43.544Z,80.20
2023-04-27T06:12:10.782Z,80.10
2023-04-27T06:14:38.363Z,80.20
2023-04-27T06:17:05.895Z,80.00
2023-04-27T06:19:32.899Z,79.70
2023-04-27T06:21:59.898Z,79.90
2023-04-27T06:24:26.849Z,79.80
2023-04-27T06:26:54.664Z,79.90
2023-04-27T06:29:21.719Z,80.00
2023-04-27T06:31:48.860Z,80.00
2023-04-27T06:34:16.011Z,80.00
2023-04-27T06:36:43.026Z,79.60
2023-04-27T06:40:04.217Z,78.70
2023-04-27T06:42:31.314Z,78.90
2023-04-27T06:44:58.822Z,79.10
2023-04-27T06:47:25.888Z,79.30
2023-04-27T06:49:52.880Z,79.00
2023-04-27T06:52:19.951Z,78.90
2023-04-27T06:54:47.054Z,78.20
2023-04-27T06:57:14.154Z,78.20
2023-04-27T06:59:41.181Z,78.10
2023-04-27T07:02:08.404Z,77.90
2023-04-27T07:04:36.808Z,76.60
2023-04-27T07:07:03.982Z,77.10
2023-04-27T07:09:31.270Z,77.60
2023-04-27T07:11:59.117Z,77.40
2023-04-27T07:14:26.345Z,75.70
2023-04-27T07:16:53.411Z,75.80
2023-04-27T07:19:20.579Z,75.80
2023-04-27T07:21:48.040Z,76.30
2023-04-27T07:24:15.207Z,76.10
2023-04-27T07:26:42.639Z,75.80
2023-04-27T07:29:25.557Z,75.90
2023-04-27T07:31:54.357Z,75.50
2023-04-27T07:34:21.470Z,75.70
2023-04-27T07:36:48.570Z,75.60
2023-04-27T07:39:15.882Z,76.00
2023-04-27T07:41:43.053Z,75.30
2023-04-27T07:44:10.382Z,75.30
2023-04-27T07:46:38.754Z,75.80
2023-04-27T07:49:05.793Z,73.70
2023-04-27T07:51:34.713Z,73.50
2023-04-27T07:54:02.679Z,72.40
2023-04-27T07:56:29.718Z,72.50
2023-04-27T07:58:56.840Z,71.70
2023-04-27T08:01:23.858Z,71.20
2023-04-27T08:03:51.353Z,69.40
2023-04-27T08:06:19.877Z,70.30
2023-04-27T08:08:47.041Z,68.90
2023-04-27T08:11:14.085Z,68.90
2023-04-27T08:13:41.554Z,69.10
2023-04-27T08:16:11.305Z,69.00
2023-04-27T08:18:38.361Z,66.50
2023-04-27T08:21:05.516Z,66.60
2023-04-27T08:23:33.207Z,66.70
2023-04-27T08:26:00.305Z,67.20
2023-04-27T08:28:27.318Z,64.60
2023-04-27T08:30:54.553Z,63.20
2023-04-27T08:33:21.681Z,63.70
2023-04-27T08:35:48.728Z,62.90
2023-04-27T08:38:16.192Z,63.20
2023-04-27T08:40:46.255Z,62.30
2023-04-27T08:43:13.303Z,61.50
2023-04-27T08:45:50.044Z,61.80
2023-04-27T08:48:17.385Z,60.00
2023-04-27T08:50:45.294Z,59.30
2023-04-27T08:53:22.453Z,58.20
2023-04-27T08:55:52.603Z,57.90
2023-04-27T08:58:19.866Z,59.20
2023-04-27T09:00:48.196Z,58.50
2023-04-27T09:03:26.185Z,55.40
2023-04-27T09:06:04.501Z,56.20
2023-04-27T09:08:48.904Z,58.90
2023-04-27T09:11:28.306Z,58.90
2023-04-27T09:13:55.918Z,54.70
2023-04-27T09:16:28.534Z,55.50
2023-04-27T09:18:56.910Z,54.70
2023-04-27T09:21:29.050Z,52.20
2023-04-27T09:23:56.900Z,52.00
2023-04-27T09:26:26.244Z,52.00
2023-04-27T09:28:58.462Z,52.10
2023-04-27T09:31:33.145Z,51.10
2023-04-27T09:34:00.543Z,51.30
2023-04-27T09:36:28.032Z,51.20
2023-04-27T09:38:55.130Z,51.50
2023-04-27T09:41:22.563Z,51.80
2023-04-27T09:43:49.669Z,51.20
2023-04-27T09:46:16.967Z,51.10
2023-04-27T09:48:44.013Z,52.10
2023-04-27T09:51:11.099Z,51.90
2023-04-27T09:53:46.771Z,52.50
2023-04-27T09:56:23.209Z,52.30
2023-04-27T09:59:07.720Z,49.20
2023-04-27T10:01:46.468Z,47.50
2023-04-27T10:04:23.221Z,47.60
2023-04-27T10:07:00.656Z,48.40
2023-04-27T10:09:34.208Z,48.10
2023-04-27T10:12:27.620Z,48.20
2023-04-27T10:15:12.025Z,48.00
2023-04-27T10:17:39.077Z,49.30
2023-04-27T10:20:09.133Z,48.20
2023-04-27T10:22:52.640Z,47.80
2023-04-27T10:25:25.599Z,48.30
2023-04-27T10:27:59.573Z,47.60
2023-04-27T10:30:35.694Z,47.80
2023-04-27T10:33:10.646Z,48.90
2023-04-27T10:35:46.356Z,47.80
2023-04-27T10:38:23.684Z,49.40
2023-04-27T10:41:56.223Z,49.50
2023-04-27T10:44:28.770Z,49.40
2023-04-27T10:46:59.752Z,47.90
2023-04-27T10:49:30.729Z,47.90
2023-04-27T10:51:59.677Z,48.10
2023-04-27T10:55:05.350Z,48.30
2023-04-27T10:57:32.542Z,47.80
2023-04-27T11:00:00.842Z,46.00
2023-04-27T11:02:29.323Z,44.60
2023-04-27T11:04:59.626Z,46.20
2023-04-27T11:07:28.687Z,45.90
2023-04-27T11:09:55.905Z,45.90
2023-04-27T11:12:24.205Z,45.10
2023-04-27T11:14:56.911Z,46.30
2023-04-27T11:17:42.612Z,48.50
2023-04-27T11:20:10.482Z,48.10
2023-04-27T11:22:46.189Z,50.00
2023-04-27T11:25:13.348Z,49.70
2023-04-27T11:27:42.186Z,48.40
2023-04-27T11:31:17.029Z,47.60
2023-04-27T11:33:51.017Z,45.50
2023-04-27T11:36:23.585Z,45.60
2023-04-27T11:38:50.573Z,46.50
2023-04-27T11:41:17.815Z,48.10
2023-04-27T11:43:49.533Z,47.20
2023-04-27T11:46:21.423Z,46.80
2023-04-27T11:48:49.160Z,48.00
2023-04-27T11:51:16.358Z,47.00
2023-04-27T11:53:48.358Z,46.00
2023-04-27T11:56:15.439Z,46.20
2023-04-27T11:58:46.271Z,45.10
2023-04-27T12:01:13.669Z,44.90
2023-04-27T12:03:41.244Z,46.30
2023-04-27T12:06:27.657Z,46.70
2023-04-27T12:08:57.227Z,43.70
2023-04-27T12:11:30.529Z,44.80
2023-04-27T12:13:57.665Z,45.90
2023-04-27T12:16:24.824Z,45.90
2023-04-27T12:18:51.945Z,43.70
2023-04-27T12:21:19.251Z,45.60
2023-04-27T12:23:46.628Z,45.70
2023-04-27T12:26:15.389Z,48.20
2023-04-27T12:28:42.687Z,47.60
2023-04-27T12:31:16.482Z,48.10
2023-04-27T12:33:43.507Z,47.20
2023-04-27T12:36:10.647Z,49.00
2023-04-27T12:39:18.570Z,47.50
2023-04-27T12:41:49.873Z,47.60
2023-04-27T12:44:18.315Z,49.00
2023-04-27T12:46:48.461Z,46.50
2023-04-27T12:49:15.972Z,47.60
2023-04-27T12:51:44.245Z,49.10
2023-04-27T12:54:13.140Z,48.00
2023-04-27T12:56:40.405Z,46.10
2023-04-27T12:59:07.516Z,45.80
2023-04-27T13:01:34.833Z,46.10
2023-04-27T13:04:04.242Z,44.90
2023-04-27T13:06:32.851Z,44.00
2023-04-27T13:09:00.253Z,43.30
2023-04-27T13:11:27.757Z,44.70
2023-04-27T13:13:55.284Z,45.20
2023-04-27T13:16:25.490Z,45.70
2023-04-27T13:18:53.581Z,44.10
2023-04-27T13:21:21.023Z,43.90
2023-04-27T13:23:48.208Z,45.80
2023-04-27T13:26:16.547Z,46.00
2023-04-27T13:28:43.706Z,45.70
2023-04-27T13:31:11.100Z,46.70
2023-04-27T13:33:43.072Z,47.60
2023-04-27T13:36:11.568Z,48.30
2023-04-27T13:38:38.842Z,48.00
2023-04-27T13:41:06.880Z,47.80
2023-04-27T13:43:34.206Z,47.20
2023-04-27T13:46:02.644Z,48.10
2023-04-27T13:48:30.599Z,48.70
2023-04-27T13:50:58.221Z,48.80
2023-04-27T13:53:26.055Z,47.30
2023-04-27T13:55:54.876Z,47.60
2023-04-27T13:58:23.808Z,46.20
2023-04-27T14:00:53.064Z,44.80
2023-04-27T14:03:20.756Z,43.40
2023-04-27T14:05:49.120Z,44.50
2023-04-27T14:08:16.217Z,45.10
2023-04-27T14:10:44.941Z,45.50
2023-04-27T14:13:12.478Z,44.70
2023-04-27T14:15:39.553Z,42.90
2023-04-27T14:18:07.801Z,42.60
2023-04-27T14:20:36.205Z,42.50
2023-04-27T14:23:05.573Z,43.40
2023-04-27T14:25:35.381Z,42.40
2023-04-27T14:28:03.040Z,42.30
2023-04-27T14:30:31.360Z,43.00
2023-04-27T14:32:58.649Z,43.10
2023-04-27T14:35:25.801Z,43.10
2023-04-27T14:37:53.762Z,41.50
2023-04-27T14:40:20.885Z,41.70
2023-04-27T14:42:47.915Z,42.40
2023-04-27T14:45:17.436Z,42.00
2023-04-27T14:47:44.564Z,41.60
2023-04-27T14:50:11.885Z,41.70
2023-04-27T14:52:39.410Z,41.00
2023-04-27T14:55:07.370Z,40.70
2023-04-27T14:57:34.438Z,41.30
2023-04-27T15:00:01.517Z,39.30
2023-04-27T15:02:29.046Z,38.80
2023-04-27T15:04:57.232Z,39.00
2023-04-27T15:07:24.355Z,40.10
2023-04-27T15:09:52.332Z,40.20
2023-04-27T15:12:19.318Z,44.70
2023-04-27T15:14:46.388Z,44.30
2023-04-27T15:17:14.334Z,44.80
2023-04-27T15:19:41.372Z,42.90
2023-04-27T15:22:08.434Z,43.40
2023-04-27T15:24:35.435Z,43.40
2023-04-27T15:27:03.180Z,43.90
2023-04-27T15:29:30.161Z,44.50
2023-04-27T15:31:57.338Z,43.60
2023-04-27T15:34:24.695Z,43.20
2023-04-27T15:36:52.366Z,43.20
2023-04-27T15:39:19.346Z,43.60
2023-04-27T15:41:46.353Z,42.50
2023-04-27T15:44:13.349Z,42.70
2023-04-27T15:46:40.434Z,44.10
2023-04-27T15:49:07.434Z,43.80
2023-04-27T15:51:34.485Z,44.30
2023-04-27T15:54:01.580Z,43.70
2023-04-27T15:56:30.601Z,45.40
2023-04-27T15:58:58.035Z,45.20
2023-04-27T16:01:26.187Z,45.80
2023-04-27T16:03:53.489Z,45.70
2023-04-27T16:06:20.624Z,44.80
2023-04-27T16:08:47.624Z,46.20
2023-04-27T16:11:14.626Z,44.30
2023-04-27T16:13:41.670Z,44.40
2023-04-27T16:16:08.743Z,44.30
2023-04-27T16:18:36.030Z,45.60
2023-04-27T16:21:04.025Z,45.90
2023-04-27T16:23:31.049Z,45.30
2023-04-27T16:25:58.084Z,45.90
2023-04-27T16:28:25.165Z,46.40
2023-04-27T16:30:52.955Z,47.20
2023-04-27T16:33:21.369Z,48.00
2023-04-27T16:35:48.467Z,47.90
2023-04-27T16:38:15.615Z,46.60
2023-04-27T16:40:42.730Z,46.50
2023-04-27T16:43:09.916Z,46.70
2023-04-27T16:45:38.657Z,46.50
2023-04-27T16:48:05.909Z,46.30
2023-04-27T16:50:33.575Z,46.30
2023-04-27T16:53:13.697Z,47.80
2023-04-27T16:55:40.913Z,49.30
2023-04-27T16:58:07.888Z,49.50
2023-04-27T17:00:34.965Z,48.90
2023-04-27T17:03:02.070Z,50.40
2023-04-27T17:05:29.207Z,50.90
2023-04-27T17:07:56.296Z,51.10
2023-04-27T17:10:23.379Z,52.20
2023-04-27T17:12:51.323Z,52.30
2023-04-27T17:15:18.667Z,52.80
2023-04-27T17:17:45.736Z,53.40
2023-04-27T17:20:13.404Z,53.30
2023-04-27T17:22:40.520Z,53.90
2023-04-27T17:25:08.677Z,54.50
2023-04-27T17:27:35.902Z,54.60
2023-04-27T17:30:03.058Z,53.70
2023-04-27T17:32:30.116Z,55.30
2023-04-27T17:34:57.677Z,54.70
2023-04-27T17:37:24.700Z,54.80
2023-04-27T17:39:53.114Z,55.40
2023-04-27T17:42:20.567Z,55.90
2023-04-27T17:44:47.590Z,56.50
2023-04-27T17:47:14.964Z,57.60
2023-04-27T17:49:42.315Z,58.10
2023-04-27T17:52:09.898Z,57.30
2023-04-27T17:54:36.996Z,58.30
2023-04-27T17:57:04.210Z,58.60
2023-04-27T17:59:31.211Z,57.60
2023-04-27T18:01:58.832Z,58.80
2023-04-27T18:04:26.916Z,59.30
2023-04-27T18:06:54.082Z,59.00
2023-04-27T18:09:21.195Z,59.20
2023-04-27T18:11:48.303Z,59.40
2023-04-27T18:14:15.305Z,59.50
2023-04-27T18:16:43.062Z,59.30
2023-04-27T18:19:10.415Z,59.80
2023-04-27T18:21:38.010Z,58.50
2023-04-27T18:24:06.085Z,59.70
2023-04-27T18:26:35.695Z,59.10
2023-04-27T18:29:03.638Z,59.10
2023-04-27T18:31:30.905Z,59.20
2023-04-27T18:38:11.028Z,59.10
2023-04-27T18:40:38.109Z,59.90
2023-04-27T18:43:05.142Z,60.30
2023-04-27T18:45:32.234Z,60.40
2023-04-27T18:47:59.248Z,60.70
2023-04-27T18:50:26.722Z,61.00
2023-04-27T18:52:53.682Z,61.10
2023-04-27T18:55:20.860Z,61.10
2023-04-27T18:57:47.859Z,61.50
2023-04-27T19:00:15.292Z,61.30
2023-04-27T19:03:46.432Z,61.50
2023-04-27T19:06:14.453Z,61.70
2023-04-27T19:08:41.963Z,61.90
2023-04-27T19:11:08.970Z,61.90
2023-04-27T19:13:36.579Z,62.00
2023-04-27T19:16:05.438Z,62.40
2023-04-27T19:18:35.682Z,62.30
2023-04-27T19:21:03.686Z,62.30
2023-04-27T19:23:30.771Z,62.50
2023-04-27T19:26:09.678Z,62.70
2023-04-27T19:28:39.851Z,62.60
2023-04-27T19:31:07.237Z,62.60
2023-04-27T19:37:53.963Z,62.70
2023-04-27T19:40:21.570Z,62.90
2023-04-27T19:42:48.571Z,62.80
2023-04-27T19:45:17.027Z,63.10
2023-04-27T19:47:44.371Z,63.20
2023-04-27T19:50:11.773Z,63.60
2023-04-27T19:52:38.796Z,63.70
2023-04-27T19:55:06.338Z,63.90
2023-04-27T19:57:33.864Z,64.10
2023-04-27T20:00:01.700Z,64.40
2023-04-27T20:02:40.352Z,64.80
2023-04-27T20:05:47.528Z,64.80
2023-04-27T20:08:14.820Z,64.90
2023-04-27T20:10:42.174Z,65.00
2023-04-27T20:13:09.856Z,64.90
2023-04-27T20:15:37.734Z,65.10
2023-04-27T20:18:04.929Z,65.30
2023-04-27T20:20:32.083Z,65.10
2023-04-27T20:22:59.061Z,65.20
2023-04-27T20:25:26.227Z,65.10
2023-04-27T20:27:53.246Z,65.30
2023-04-27T20:30:20.330Z,65.50
2023-04-27T20:32:47.417Z,65.60
2023-04-27T20:35:14.448Z,65.70
2023-04-27T20:37:43.473Z,65.70
2023-04-27T20:40:14.422Z,65.70
2023-04-27T20:42:42.604Z,65.70
2023-04-27T20:45:11.635Z,65.40
2023-04-27T20:47:38.800Z,65.60
2023-04-27T20:50:06.798Z,65.70
2023-04-27T20:52:34.753Z,66.00
2023-04-27T20:55:03.096Z,66.30
2023-04-27T20:57:30.136Z,66.50
2023-04-27T20:59:57.205Z,66.70
2023-04-27T21:02:24.244Z,67.00
2023-04-27T21:04:52.074Z,66.90
2023-04-27T21:07:19.150Z,67.00
2023-04-27T21:09:46.157Z,67.60
2023-04-27T21:12:14.895Z,67.70
2023-04-27T21:14:42.511Z,67.80
2023-04-27T21:17:10.394Z,68.10
2023-04-27T21:19:37.846Z,68.10
2023-04-27T21:22:17.109Z,68.40
2023-04-27T21:24:44.135Z,68.40
2023-04-27T21:27:11.788Z,68.70
2023-04-27T21:29:39.183Z,69.00
2023-04-27T21:32:06.658Z,69.60
2023-04-27T21:35:08.133Z,69.80
2023-04-27T21:37:35.938Z,69.30
2023-04-27T21:40:03.996Z,69.20
2023-04-27T21:42:31.448Z,69.70
2023-04-27T21:44:58.564Z,70.00
2023-04-27T21:47:25.597Z,70.00
2023-04-27T21:49:52.764Z,70.20
2023-04-27T21:52:21.715Z,70.20
2023-04-27T21:54:49.359Z,70.50
2023-04-27T21:58:08.898Z,70.50
2023-04-27T22:00:35.893Z,70.70
2023-04-27T22:03:03.805Z,70.90
2023-04-27T22:05:33.563Z,70.90
2023-04-27T22:08:00.626Z,71.00
2023-04-27T22:10:27.637Z,71.10
2023-04-27T22:12:54.851Z,71.10
2023-04-27T22:15:22.835Z,71.30
2023-04-27T22:17:51.366Z,71.30
2023-04-27T22:20:18.969Z,71.70
2023-04-27T22:22:46.361Z,71.70
2023-04-27T22:25:13.494Z,72.00
2023-04-27T22:27:44.924Z,71.70
2023-04-27T22:30:13.520Z,71.80
2023-04-27T22:32:40.535Z,72.20
2023-04-27T22:35:24.849Z,72.20
2023-04-27T22:37:59.335Z,72.40
2023-04-27T22:40:26.624Z,72.40
2023-04-27T22:42:55.194Z,72.90
2023-04-27T22:45:22.868Z,73.30
2023-04-27T22:47:50.250Z,73.30
2023-04-27T22:50:17.592Z,73.60
2023-04-27T22:52:44.705Z,73.60
2023-04-27T22:55:12.907Z,73.70
2023-04-27T22:57:41.570Z,73.90
2023-04-27T23:00:11.489Z,74.20
2023-04-27T23:02:39.760Z,74.50
2023-04-27T23:05:07.417Z,74.60
2023-04-27T23:07:35.173Z,74.70
2023-04-27T23:10:02.991Z,74.60
2023-04-27T23:12:30.837Z,74.50
2023-04-27T23:15:00.768Z,74.50
2023-04-27T23:17:30.800Z,74.60
2023-04-27T23:19:59.611Z,74.50
2023-04-27T23:22:27.165Z,74.50
2023-04-27T23:24:54.567Z,74.60
2023-04-27T23:27:22.695Z,74.60
2023-04-27T23:29:49.704Z,74.80
2023-04-27T23:32:17.245Z,74.70
2023-04-27T23:34:44.307Z,74.70
2023-04-27T23:37:11.354Z,74.90
2023-04-27T23:39:38.432Z,74.80
2023-04-27T23:42:05.636Z,74.90
2023-04-27T23:44:32.694Z,74.90
2023-04-27T23:46:59.763Z,75.10
2023-04-27T23:49:26.717Z,75.10
2023-04-27T23:51:53.769Z,75.20
2023-04-27T23:54:20.707Z,75.40
2023-04-27T23:56:47.740Z,75.30
2023-04-27T23:59:15.336Z,75.40
